createdAt,value
2018-08-18T00:00:00.032Z,24.50
2018-08-18T00:02:37.675Z,24.60
2018-08-18T00:05:12.354Z,25.00
2018-08-18T00:07:45.930Z,25.10
2018-08-18T00:10:23.224Z,25.20
2018-08-18T00:13:00.775Z,25.40
2018-08-18T00:15:35.167Z,25.40
2018-08-18T00:18:12.947Z,25.10
2018-08-18T00:20:46.139Z,25.20
2018-08-18T00:23:20.968Z,25.30
2018-08-18T00:25:55.331Z,25.50
2018-08-18T00:28:31.069Z,25.70
2018-08-18T00:31:05.058Z,25.60
2018-08-18T00:33:41.906Z,25.40
2018-08-18T00:36:15.406Z,25.30
2018-08-18T00:38:48.812Z,24.60
2018-08-18T00:41:22.517Z,24.80
2018-08-18T00:43:56.424Z,25.20
2018-08-18T00:46:32.684Z,25.50
2018-08-18T00:49:06.077Z,25.60
2018-08-18T00:51:43.173Z,25.80
2018-08-18T00:54:16.885Z,25.90
2018-08-18T00:56:50.914Z,25.80
2018-08-18T00:59:33.265Z,25.40
2018-08-18T01:02:07.794Z,25.70
2018-08-18T01:04:46.021Z,25.70
2018-08-18T01:07:20.809Z,25.80
2018-08-18T01:09:54.963Z,25.50
2018-08-18T01:12:29.005Z,26.10
2018-08-18T01:15:02.124Z,26.50
2018-08-18T01:17:36.280Z,26.80
2018-08-18T01:20:12.527Z,27.00
2018-08-18T01:22:52.754Z,27.20
2018-08-18T01:25:26.033Z,26.80
2018-08-18T01:27:59.985Z,27.00
2018-08-18T01:30:33.440Z,26.90
2018-08-18T01:33:07.245Z,26.80
2018-08-18T01:35:40.657Z,27.00
2018-08-18T01:38:14.050Z,27.00
2018-08-18T01:40:49.220Z,27.10
2018-08-18T01:43:22.763Z,27.20
2018-08-18T01:46:00.045Z,27.00
2018-08-18T01:48:34.860Z,27.00
2018-08-18T01:51:17.373Z,26.10
2018-08-18T01:53:52.103Z,26.50
2018-08-18T01:56:25.899Z,26.20
2018-08-18T01:58:59.641Z,26.20
2018-08-18T02:01:33.937Z,26.20
2018-08-18T02:04:07.083Z,25.80
2018-08-18T02:06:40.350Z,25.40
2018-08-18T02:09:13.702Z,25.00
2018-08-18T02:11:50.954Z,24.80
2018-08-18T02:14:26.496Z,24.40
2018-08-18T02:17:09.516Z,24.10
2018-08-18T02:19:43.229Z,23.70
2018-08-18T02:22:17.134Z,23.20
2018-08-18T02:24:51.781Z,22.90
2018-08-18T02:27:26.977Z,22.70
2018-08-18T02:30:09.191Z,22.60
2018-08-18T02:32:42.804Z,22.50
2018-08-18T02:35:16.018Z,22.40
2018-08-18T02:37:49.340Z,22.30
2018-08-18T02:40:22.769Z,22.20
2018-08-18T02:42:56.170Z,22.10
2018-08-18T02:45:30.287Z,22.00
2018-08-18T02:48:13.412Z,21.80
2018-08-18T02:50:52.222Z,21.80
2018-08-18T02:53:34.382Z,21.60
2018-08-18T02:56:08.295Z,21.40
2018-08-18T02:58:42.519Z,21.30
2018-08-18T03:01:17.852Z,21.20
2018-08-18T03:03:51.286Z,21.10
2018-08-18T03:06:25.309Z,21.00
2018-08-18T03:09:00.159Z,20.90
2018-08-18T03:11:33.638Z,20.80
2018-08-18T03:14:07.102Z,20.70
2018-08-18T03:16:42.792Z,20.60
2018-08-18T03:19:18.197Z,20.50
2018-08-18T03:21:51.773Z,20.40
2018-08-18T03:24:26.155Z,20.30
2018-08-18T03:27:00.250Z,20.20
2018-08-18T03:29:38.500Z,20.10
2018-08-18T03:32:12.958Z,20.00
2018-08-18T03:34:46.982Z,19.80
2018-08-18T03:37:30.987Z,19.80
2018-08-18T03:40:04.339Z,19.70
2018-08-18T03:42:42.888Z,19.70
2018-08-18T03:45:16.231Z,19.60
2018-08-18T03:47:49.648Z,19.60
2018-08-18T03:50:23.010Z,19.50
2018-08-18T03:52:56.252Z,19.50
2018-08-18T03:55:39.668Z,19.40
2018-08-18T03:58:13.760Z,19.40
2018-08-18T04:00:47.551Z,19.30
2018-08-18T04:03:21.854Z,19.20
2018-08-18T04:05:55.404Z,19.10
2018-08-18T04:08:32.758Z,19.10
2018-08-18T04:11:07.039Z,19.00
2018-08-18T04:13:40.588Z,19.00
2018-08-18T04:16:13.744Z,18.90
2018-08-18T04:18:48.881Z,18.90
2018-08-18T04:21:22.913Z,18.90
2018-08-18T04:23:56.306Z,18.80
2018-08-18T04:26:32.015Z,18.70
2018-08-18T04:29:06.077Z,18.70
2018-08-18T04:31:39.900Z,18.60
2018-08-18T04:34:15.128Z,18.60
2018-08-18T04:36:49.670Z,18.50
2018-08-18T04:39:24.768Z,18.50
2018-08-18T04:42:06.756Z,18.40
2018-08-18T04:44:51.572Z,18.40
2018-08-18T04:47:35.644Z,18.30
2018-08-18T04:50:09.119Z,18.20
2018-08-18T04:52:42.479Z,18.20
2018-08-18T04:55:18.470Z,18.20
2018-08-18T04:57:53.502Z,18.10
2018-08-18T05:00:29.740Z,18.10
2018-08-18T05:03:03.532Z,18.00
2018-08-18T05:05:37.511Z,18.00
2018-08-18T05:08:11.585Z,18.00
2018-08-18T05:10:45.887Z,17.90
2018-08-18T05:13:20.350Z,17.90
2018-08-18T05:15:54.060Z,17.80
2018-08-18T05:18:27.484Z,17.80
2018-08-18T05:21:01.735Z,17.80
2018-08-18T05:23:36.709Z,17.80
2018-08-18T05:26:11.120Z,17.80
2018-08-18T05:28:44.885Z,17.70
2018-08-18T05:31:19.600Z,17.70
2018-08-18T05:33:54.006Z,17.60
2018-08-18T05:36:28.009Z,17.60
2018-08-18T05:39:01.490Z,17.60
2018-08-18T05:41:34.963Z,17.50
2018-08-18T05:44:08.660Z,17.50
2018-08-18T05:46:42.554Z,17.40
2018-08-18T05:49:18.354Z,17.40
2018-08-18T05:51:54.709Z,17.40
2018-08-18T05:54:31.178Z,17.30
2018-08-18T05:57:04.541Z,17.30
2018-08-18T05:59:42.243Z,17.20
2018-08-18T06:02:15.591Z,17.20
2018-08-18T06:04:48.995Z,17.10
2018-08-18T06:07:26.850Z,17.10
2018-08-18T06:10:00.293Z,17.00
2018-08-18T06:12:41.136Z,17.00
2018-08-18T06:15:21.873Z,17.00
2018-08-18T06:17:56.119Z,17.00
2018-08-18T06:20:30.647Z,17.00
2018-08-18T06:23:04.721Z,16.90
2018-08-18T06:25:38.264Z,16.80
2018-08-18T06:28:13.738Z,16.70
2018-08-18T06:30:47.163Z,16.70
2018-08-18T06:33:21.460Z,16.70
2018-08-18T06:35:55.040Z,16.70
2018-08-18T06:38:28.189Z,16.70
2018-08-18T06:41:02.519Z,16.70
2018-08-18T06:43:36.693Z,16.70
2018-08-18T06:46:11.738Z,16.60
2018-08-18T06:48:46.025Z,16.60
2018-08-18T06:51:21.873Z,16.60
2018-08-18T06:53:55.611Z,16.50
2018-08-18T06:56:29.006Z,16.50
2018-08-18T06:59:06.142Z,16.40
2018-08-18T07:01:40.655Z,16.30
2018-08-18T07:04:20.695Z,16.30
2018-08-18T07:06:53.958Z,16.30
2018-08-18T07:09:27.137Z,16.30
2018-08-18T07:12:00.748Z,16.30
2018-08-18T07:14:33.914Z,16.30
2018-08-18T07:17:07.212Z,16.30
2018-08-18T07:19:40.402Z,16.30
2018-08-18T07:22:18.751Z,16.30
2018-08-18T07:24:51.821Z,16.30
2018-08-18T07:27:25.305Z,16.20
2018-08-18T07:29:58.714Z,16.20
2018-08-18T07:32:36.271Z,16.20
2018-08-18T07:35:09.517Z,16.20
2018-08-18T07:37:42.955Z,16.10
2018-08-18T07:40:16.399Z,16.10
2018-08-18T07:42:56.584Z,16.10
2018-08-18T15:33:51.706Z,16.00
2018-08-18T15:36:35.989Z,16.00
2018-08-18T15:39:10.375Z,16.20
2018-08-18T15:41:44.564Z,16.30
2018-08-18T15:44:20.982Z,16.20
2018-08-18T15:46:55.456Z,16.20
2018-08-18T15:49:29.123Z,16.20
2018-08-18T15:52:02.979Z,16.30
2018-08-18T15:54:36.431Z,16.40
2018-08-18T15:57:09.617Z,16.50
2018-08-18T15:59:43.315Z,16.50
2018-08-18T16:02:18.080Z,16.60
2018-08-18T16:04:51.604Z,16.70
2018-08-18T16:07:25.693Z,16.80
2018-08-18T16:10:00.950Z,16.90
2018-08-18T16:12:34.925Z,16.80
2018-08-18T16:15:08.299Z,16.90
2018-08-18T16:17:43.087Z,17.10
2018-08-18T16:20:20.704Z,17.20
2018-08-18T16:22:56.373Z,17.30
2018-08-18T16:25:38.135Z,17.40
2018-08-18T16:28:12.319Z,17.50
2018-08-18T16:30:46.275Z,17.40
2018-08-18T16:33:25.318Z,17.50
2018-08-18T16:35:59.700Z,17.70
2018-08-18T16:38:33.522Z,17.80
2018-08-18T16:41:07.287Z,18.00
2018-08-18T16:43:41.005Z,18.10
2018-08-18T16:46:27.769Z,18.20
2018-08-18T16:49:02.204Z,18.40
2018-08-18T16:51:36.138Z,18.30
2018-08-18T16:54:22.055Z,18.40
2018-08-18T16:56:57.957Z,18.50
2018-08-18T16:59:32.570Z,18.60
2018-08-18T17:02:07.864Z,18.80
2018-08-18T17:04:40.908Z,18.90
2018-08-18T17:07:18.778Z,19.00
2018-08-18T17:09:52.040Z,18.90
2018-08-18T17:12:32.820Z,18.90
2018-08-18T17:15:06.599Z,19.00
2018-08-18T17:17:39.945Z,18.70
2018-08-18T17:20:13.651Z,18.80
2018-08-18T17:22:48.558Z,18.90
2018-08-18T17:25:23.332Z,19.10
2018-08-18T17:27:56.732Z,19.30
2018-08-18T17:30:29.932Z,19.40
2018-08-18T17:33:03.299Z,19.30
2018-08-18T17:35:40.960Z,19.40
2018-08-18T17:38:16.881Z,19.50
2018-08-18T17:40:52.883Z,19.50
2018-08-18T17:43:26.147Z,19.70
2018-08-18T17:46:02.510Z,19.80
2018-08-18T17:48:44.397Z,19.70
2018-08-18T17:51:18.288Z,19.50
2018-08-18T17:53:56.224Z,19.70
2018-08-18T17:56:29.826Z,19.60
2018-08-18T17:59:03.648Z,19.90
2018-08-18T18:01:43.779Z,20.10
2018-08-18T18:04:17.914Z,20.30
2018-08-18T18:06:51.385Z,20.50
2018-08-18T18:09:24.948Z,20.70
2018-08-18T18:11:58.615Z,20.90
2018-08-18T18:14:32.109Z,20.90
2018-08-18T18:17:05.409Z,21.00
2018-08-18T18:19:38.505Z,21.10
2018-08-18T18:22:12.253Z,21.10
2018-08-18T18:24:47.145Z,20.80
2018-08-18T18:27:20.882Z,20.80
2018-08-18T18:29:54.431Z,20.90
2018-08-18T18:32:27.938Z,21.00
2018-08-18T18:35:01.262Z,21.20
2018-08-18T18:37:35.966Z,21.20
2018-08-18T18:40:14.124Z,20.80
2018-08-18T18:42:47.271Z,20.70
2018-08-18T18:45:21.974Z,20.60
2018-08-18T18:47:55.270Z,20.70
2018-08-18T18:50:28.609Z,20.90
2018-08-18T18:53:05.687Z,20.60
2018-08-18T18:55:49.884Z,20.80
2018-08-18T18:58:27.052Z,21.00
2018-08-18T19:01:07.763Z,21.20
2018-08-18T19:03:41.294Z,21.50
2018-08-18T19:06:15.633Z,21.60
2018-08-18T19:09:00.591Z,21.60
2018-08-18T19:11:34.043Z,21.40
2018-08-18T19:14:07.673Z,21.30
2018-08-18T19:16:41.067Z,21.40
2018-08-18T19:19:14.883Z,21.30
2018-08-18T19:21:49.519Z,21.30
2018-08-18T19:24:27.452Z,21.50
2018-08-18T19:27:02.911Z,21.70
2018-08-18T19:29:36.399Z,21.80
2018-08-18T19:32:12.668Z,21.90
2018-08-18T19:34:46.094Z,21.90
2018-08-18T19:37:20.757Z,22.20
2018-08-18T19:39:54.839Z,21.80
2018-08-18T19:42:29.230Z,21.70
2018-08-18T19:45:04.480Z,21.80
2018-08-18T19:47:38.732Z,22.10
2018-08-18T19:50:14.303Z,22.30
2018-08-18T19:52:48.615Z,22.20
2018-08-18T19:55:23.712Z,22.20
2018-08-18T19:57:57.141Z,22.30
2018-08-18T20:00:31.182Z,22.30
2018-08-18T20:03:12.457Z,22.00
2018-08-18T20:05:46.271Z,22.10
2018-08-18T20:08:22.997Z,22.30
2018-08-18T20:10:57.975Z,22.50
2018-08-18T20:20:26.561Z,22.90
2018-08-18T20:23:00.013Z,23.10
2018-08-18T20:25:33.599Z,23.10
2018-08-18T20:28:07.704Z,23.10
2018-08-18T20:30:40.999Z,23.30
2018-08-18T20:33:16.352Z,23.40
2018-08-18T20:35:49.708Z,23.40
2018-08-18T20:38:23.875Z,23.50
2018-08-18T20:40:57.162Z,23.70
2018-08-18T20:43:31.330Z,23.80
2018-08-18T20:46:05.230Z,23.80
2018-08-18T20:48:40.284Z,23.70
2018-08-18T20:51:14.104Z,23.70
2018-08-18T20:53:47.192Z,23.90
2018-08-18T20:56:21.092Z,24.30
2018-08-18T20:58:57.617Z,24.20
2018-08-18T21:01:30.981Z,24.20
2018-08-18T21:04:04.293Z,24.00
2018-08-18T21:06:37.481Z,24.30
2018-08-18T21:09:23.757Z,24.30
2018-08-18T21:11:57.224Z,24.50
2018-08-18T21:14:33.607Z,24.40
2018-08-18T21:17:06.944Z,24.70
2018-08-18T21:19:40.605Z,24.90
2018-08-18T21:22:16.815Z,25.00
2018-08-18T21:24:49.999Z,25.30
2018-08-18T21:27:23.336Z,25.10
2018-08-18T21:29:59.011Z,24.80
2018-08-18T21:32:32.308Z,24.90
2018-08-18T21:35:05.508Z,25.20
2018-08-18T21:37:39.471Z,25.50
2018-08-18T21:40:13.652Z,25.50
2018-08-18T21:42:47.402Z,25.70
2018-08-18T21:45:21.011Z,25.80
2018-08-18T21:47:54.833Z,26.10
2018-08-18T21:50:29.603Z,25.80
2018-08-18T21:53:02.909Z,25.80
2018-08-18T21:55:37.522Z,26.00
2018-08-18T21:58:11.353Z,26.40
2018-08-18T22:00:50.840Z,26.30
2018-08-18T22:03:24.550Z,26.30
2018-08-18T22:05:58.377Z,26.60
2018-08-18T22:08:33.218Z,26.20
2018-08-18T22:11:06.626Z,26.10
2018-08-18T22:13:48.977Z,26.20
2018-08-18T22:16:22.672Z,26.30
2018-08-18T22:19:05.464Z,26.30
2018-08-18T22:21:38.990Z,26.20
2018-08-18T22:24:12.739Z,26.20
2018-08-18T22:26:46.972Z,26.30
2018-08-18T22:29:20.923Z,26.70
2018-08-18T22:31:54.352Z,27.10
2018-08-18T22:34:29.200Z,27.10
2018-08-18T22:37:10.799Z,26.90
2018-08-18T22:39:44.403Z,27.00
2018-08-18T22:42:18.376Z,27.00
2018-08-18T22:44:51.664Z,27.50
2018-08-18T22:47:25.642Z,27.90
2018-08-18T22:49:59.985Z,27.90
2018-08-18T22:52:33.210Z,28.10
2018-08-18T22:55:06.582Z,28.10
2018-08-18T22:57:40.623Z,28.10
2018-08-18T23:00:13.971Z,28.10
2018-08-18T23:02:48.473Z,28.30
2018-08-18T23:05:24.949Z,28.00
2018-08-18T23:08:00.134Z,27.80
2018-08-18T23:10:34.473Z,27.70
2018-08-18T23:13:08.687Z,27.20
2018-08-18T23:15:42.025Z,27.10
2018-08-18T23:18:15.557Z,27.30
2018-08-18T23:20:48.666Z,27.10
2018-08-18T23:23:22.210Z,27.20
2018-08-18T23:25:56.947Z,27.50
2018-08-18T23:28:30.575Z,27.80
2018-08-18T23:31:04.163Z,28.20
2018-08-18T23:33:37.774Z,27.90
2018-08-18T23:36:11.937Z,27.60
2018-08-18T23:39:01.034Z,27.40
2018-08-18T23:41:36.324Z,27.40
2018-08-18T23:44:09.922Z,28.00
2018-08-18T23:46:44.315Z,28.10
2018-08-18T23:49:17.553Z,28.10
2018-08-18T23:51:53.870Z,28.30
2018-08-18T23:54:27.085Z,28.20
2018-08-18T23:57:02.456Z,27.60
2018-08-18T23:59:37.812Z,27.80
